Latest Coastal Weather Observations for Gabo Island (VIC)

IDN60701

Issued at 11:41 am EST Friday 24 May 2024 (issued every 10 minutes, with the page automatically refreshed every 10 minutes)

About coastal observations | Map of coastal stations | Coastal observations for NSW | Marine services | Other Formats
Station Details ID: 084016 Name: GABO ISLAND LIGHTHOUSE Lat: -37.57 Lon: 149.92 Height: 15.0 m
Data from the previous 72 hours. | See also: Recent months at Gabo Island (VIC)
Date/Time
EST
Wind Sea
Height
m
Swell Vis
km
Cloud Weather Temp
°C
Press
MSL
hPa
Rain since
9am
mm
Dir  Spd
kts
Gust
kts
Height
m
Period
s
Dir
24/11:30am W 14 18 - - - - - - - 16.3 1027.2 0.0
24/11:00am W 12 16 - - - - - - - 15.3 1027.4 0.0
24/10:30am W 12 15 - - - - - - - 14.6 1027.5 0.0
24/10:00am W 11 15 - - - - - - - 13.8 1027.8 0.0
24/09:30am W 10 13 - - - - - - - 13.2 1027.7 0.0
24/09:00am W 10 13 1 1.0 9 SE 25 Mostly cloudy Distant precip. 12.8 1027.8 0.0
24/08:30am W 11 14 - - - - - - - 12.8 1027.7 0.0
24/08:00am W 12 15 - - - - - - - 12.6 1027.4 0.0
24/07:30am WNW 13 15 - - - - - - - 11.9 1027.1 0.0
24/07:00am WNW 11 14 - - - - - - - 11.4 1026.8 0.0
24/06:30am W 13 18 - - - - - - - 11.7 1026.7 0.0
24/06:00am W 14 18 - - - - - - - 11.7 1026.7 0.0
24/05:30am W 14 17 - - - - - - - 11.7 1026.4 0.0
24/05:00am W 14 18 - - - - - - - 11.6 1026.1 0.0
24/04:30am W 12 15 - - - - - - - 11.5 1026.0 0.0
24/04:00am W 12 16 - - - - - - - 11.6 1026.0 0.0
24/03:30am WNW 10 13 - - - - - - - 11.5 1026.0 0.0
24/03:00am WNW 12 15 1 1.0 9 SE 25 Mostly clear Fine 11.5 1026.2 0.0
24/02:30am WNW 11 15 - - - - - - - 11.7 1026.1 0.0
24/02:00am WNW 11 13 - - - - - - - 11.5 1026.3 0.0
24/01:30am WNW 9 11 - - - - - - - 12.0 1026.3 0.0
24/01:00am WNW 9 11 - - - - - - - 12.0 1026.4 0.0
24/12:30am WNW 8 11 - - - - - - - 12.2 1026.4 0.0
24/12:00am WNW 8 11 - - - - - - - 12.4 1026.6 0.0
 
Date/Time
EST
Wind Sea
Height
m
Swell Vis
km
Cloud Weather Temp
°C
Press
MSL
hPa
Rain since
9am
mm
Dir  Spd
kts
Gust
kts
Height
m
Period
s
Dir
23/11:30pm WNW 10 13 - - - - - - - 12.6 1026.6 0.0
23/11:00pm WNW 9 12 - - - - - - - 12.8 1026.7 0.0
23/10:30pm WNW 9 13 - - - - - - - 12.7 1026.7 0.0
23/10:00pm WNW 9 15 - - - - - - - 13.0 1027.0 0.0
23/09:30pm WNW 9 12 - - - - - - - 12.4 1027.1 0.0
23/09:00pm WNW 9 11 1 1.0 6 S 25 Mostly clear Fine 12.5 1027.0 0.0
23/08:30pm W 10 15 - - - - - - - 13.0 1026.8 0.0
23/08:00pm WNW 8 12 - - - - - - - 12.9 1027.0 0.0
23/07:30pm W 14 17 - - - - - - - 13.8 1026.8 0.0
23/07:00pm W 12 16 - - - - - - - 13.7 1026.9 0.0
23/06:30pm WSW 14 17 - - - - - - - 14.1 1026.7 0.0
23/06:00pm WSW 15 19 - - - - - - - 14.2 1026.6 0.0
23/05:30pm WSW 17 21 - - - - - - - 14.6 1026.3 0.0
23/05:00pm WSW 17 21 - - - - - - - 14.6 1026.1 0.0
23/04:30pm SW 18 21 - - - - - - - 15.2 1025.9 0.0
23/04:00pm WSW 17 22 - - - - - - - 15.6 1025.8 0.0
23/03:30pm SW 18 22 - - - - - - - 16.1 1025.8 0.0
23/03:00pm SW 18 22 2 1.5 6 S 25 Partly cloudy Fine 16.1 1025.7 0.0
23/02:30pm SW 20 24 - - - - - - - 16.1 1025.7 0.0
23/02:00pm SW 16 20 - - - - - - - 16.2 1025.7 0.0
23/01:30pm SW 15 18 - - - - - - - 16.4 1025.8 0.0
23/01:00pm SW 16 19 - - - - - - - 16.2 1026.0 0.0
23/12:30pm WSW 13 16 - - - - - - - 16.4 1026.1 0.0
23/12:00pm WSW 10 13 - - - - - - - 16.0 1026.3 0.0
23/11:30am W 11 14 - - - - - - - 15.4 1026.7 0.0
23/11:00am WNW 11 15 - - - - - - - 15.4 1027.1 0.0
23/10:30am WNW 11 16 - - - - - - - 14.3 1027.3 0.0
23/10:00am WNW 10 14 - - - - - - - 13.8 1027.3 0.0
23/09:30am WNW 10 14 - - - - - - - 13.0 1027.4 0.0
23/09:00am WNW 12 16 1 1.0 8 SE 25 Partly cloudy Fine 12.3 1027.4 0.0
23/08:30am WNW 12 16 - - - - - - - 11.7 1027.3 0.0
23/08:00am WNW 12 15 - - - - - - - 11.1 1027.3 0.0
23/07:30am WNW 12 16 - - - - - - - 10.8 1027.1 0.0
23/07:00am W 11 14 - - - - - - - 10.7 1026.8 0.0
23/06:30am WNW 11 13 - - - - - - - 10.6 1026.4 0.0
23/06:00am WNW 12 15 - - - - - - - 10.7 1026.4 0.0
23/05:30am WNW 11 15 - - - - - - - 10.6 1026.2 0.0
23/05:00am W 12 15 - - - - - - - 11.1 1025.9 0.0
23/04:30am WNW 11 14 - - - - - - - 11.0 1025.6 0.0
23/04:00am WNW 12 15 - - - - - - - 11.0 1025.6 0.0
23/03:30am WNW 11 15 - - - - - - - 10.9 1025.6 0.0
23/03:00am WNW 12 16 1 1.0 8 SE 25 Mostly clear Fine 11.0 1025.6 0.0
23/02:30am W 11 16 - - - - - - - 11.3 1025.7 0.0
23/02:00am W 12 16 - - - - - - - 11.5 1025.6 0.0
23/01:30am WNW 11 14 - - - - - - - 11.4 1025.9 0.0
23/01:00am WNW 12 15 - - - - - - - 11.6 1025.9 0.0
23/12:30am WNW 11 14 - - - - - - - 11.7 1025.9 0.0
23/12:00am WNW 11 15 - - - - - - - 11.7 1026.0 0.0
 
Date/Time
EST
Wind Sea
Height
m
Swell Vis
km
Cloud Weather Temp
°C
Press
MSL
hPa
Rain since
9am
mm
Dir  Spd
kts
Gust
kts
Height
m
Period
s
Dir
22/11:30pm WNW 11 14 - - - - - - - 11.7 1026.1 0.0
22/11:00pm WNW 11 15 - - - - - - - 12.0 1026.1 0.0
22/10:30pm W 12 14 - - - - - - - 12.3 1026.1 0.0
22/10:00pm WNW 11 14 - - - - - - - 12.4 1026.2 0.0
22/09:30pm W 12 16 - - - - - - - 12.7 1026.3 0.0
22/09:00pm W 11 15 2 1.0 9 SE 25 Partly cloudy Fine 12.9 1026.2 0.0
22/08:30pm W 11 14 - - - - - - - 13.2 1026.2 0.0
22/08:00pm W 11 14 - - - - - - - 13.2 1026.2 0.0
22/07:30pm W 11 15 - - - - - - - 13.2 1026.2 0.0
22/07:00pm W 11 14 - - - - - - - 13.7 1026.0 0.0
22/06:30pm W 13 16 - - - - - - - 14.0 1025.9 0.0
22/06:00pm WSW 15 18 - - - - - - - 14.1 1025.7 0.0
22/05:30pm WSW 14 17 - - - - - - - 14.2 1025.4 0.0
22/05:00pm WSW 13 17 - - - - - - - 14.3 1025.0 0.0
22/04:30pm WSW 16 19 - - - - - - - 14.7 1025.0 0.0
22/04:00pm WSW 15 19 - - - - - - - 15.1 1025.0 0.0
22/03:30pm WSW 15 19 - - - - - - - 15.6 1024.9 0.0
22/03:00pm WSW 15 20 1 1.0 9 E 25 Mostly cloudy Fine 15.7 1024.8 0.0
22/02:30pm WSW 11 15 - - - - - - - 16.0 1025.0 0.0
22/02:00pm WSW 12 15 - - - - - - - 16.2 1025.0 0.0
22/01:30pm WSW 13 16 - - - - - - - 15.5 1025.1 0.0
22/01:00pm W 14 18 - - - - - - - 14.4 1025.4 0.0
22/12:30pm WSW 15 19 - - - - - - - 15.4 1025.9 0.0
22/12:00pm WSW 15 20 - - - - - - - 15.8 1026.2 0.0
22/11:30am W 11 15 - - - - - - - 14.0 1026.7 0.0
22/11:00am W 12 17 - - - - - - - 13.7 1027.1 0.0
22/10:30am W 14 18 - - - - - - - 13.7 1027.2 0.0
22/10:00am W 12 16 - - - - - - - 13.5 1027.2 0.0
22/09:30am WNW 10 14 - - - - - - - 13.5 1027.3 0.0
22/09:00am WNW 10 14 1 1.0 7 SE 25 Mostly cloudy Fine 13.2 1027.3 0.0
22/08:30am W 13 17 - - - - - - - 12.9 1027.2 0.0
22/08:00am W 10 13 - - - - - - - 12.6 1027.1 0.0
22/07:30am WNW 10 15 - - - - - - - 12.4 1026.8 0.0
22/07:00am WNW 9 14 - - - - - - - 12.3 1026.8 0.0
22/06:30am WNW 9 12 - - - - - - - 12.3 1026.7 0.0
22/06:00am WNW 8 12 - - - - - - - 12.1 1026.5 0.0
22/05:30am W 15 18 - - - - - - - 12.5 1026.6 0.0
22/05:00am W 15 18 - - - - - - - 12.5 1026.4 0.0
22/04:30am W 14 17 - - - - - - - 13.0 1026.3 0.0
22/04:00am W 15 19 - - - - - - - 13.2 1026.3 0.0
22/03:30am W 11 15 - - - - - - - 13.0 1026.4 0.0
22/03:00am WNW 9 13 2 1.5 7 S 25 Mostly cloudy Fine 12.4 1026.4 0.0
22/02:30am WNW 10 13 - - - - - - - 12.1 1026.6 0.0
22/02:00am WNW 9 11 - - - - - - - 12.2 1026.8 0.0
22/01:30am WNW 9 12 - - - - - - - 12.2 1026.9 0.0
22/01:00am WNW 9 11 - - - - - - - 11.9 1027.1 0.0
22/12:30am WNW 9 13 - - - - - - - 12.1 1027.3 0.0
22/12:00am WNW 9 12 - - - - - - - 12.5 1027.4 0.0
 
Date/Time
EST
Wind Sea
Height
m
Swell Vis
km
Cloud Weather Temp
°C
Press
MSL
hPa
Rain since
9am
mm
Dir  Spd
kts
Gust
kts
Height
m
Period
s
Dir
21/11:30pm WNW 9 12 - - - - - - - 12.8 1027.5 0.0
21/11:00pm WNW 11 14 - - - - - - - 13.0 1027.5 0.0
21/10:30pm WSW 10 18 - - - - - - - 13.9 1027.6 0.0
21/10:00pm SSW 16 19 - - - - - - - 15.1 1027.7 0.0
21/09:30pm SSW 16 20 - - - - - - - 15.0 1027.9 0.0
21/09:00pm SSW 17 20 2 1.5 7 S 25 Mostly cloudy Fine 15.1 1027.9 0.0
21/08:30pm SSW 18 21 - - - - - - - 15.2 1027.8 0.0
21/08:00pm SSW 17 21 - - - - - - - 15.2 1027.9 0.0
21/07:30pm SSW 17 19 - - - - - - - 15.3 1027.9 0.0
21/07:00pm SW 17 22 - - - - - - - 15.1 1027.9 0.0
21/06:30pm SSW 18 21 - - - - - - - 15.3 1027.8 0.0
21/06:00pm SSW 20 24 - - - - - - - 15.3 1027.6 0.0
21/05:30pm SSW 19 23 - - - - - - - 15.5 1027.3 0.0
21/05:00pm SW 18 21 - - - - - - - 15.6 1027.1 0.0
21/04:30pm SSW 17 21 - - - - - - - 15.5 1027.2 0.0
21/04:00pm SW 19 22 - - - - - - - 15.6 1027.1 0.0
21/03:30pm SW 20 24 - - - - - - - 15.7 1027.1 0.0
21/03:00pm SW 21 26 2 1.5 7 S 25 Mostly cloudy Fine 15.4 1027.0 0.0
21/02:30pm SW 21 26 - - - - - - - 15.5 1027.0 0.0
21/02:00pm SW 21 25 - - - - - - - 15.6 1026.9 0.0
21/01:30pm SW 20 24 - - - - - - - 15.7 1027.0 0.0
21/01:00pm SW 20 25 - - - - - - - 16.5 1027.3 0.0
21/12:30pm SW 20 25 - - - - - - - 16.3 1027.6 0.0
21/12:00pm SW 21 26 - - - - - - - 16.0 1027.9 0.0

Other formats

Comma delimited format used in spreadsheet applications
http://www.bom.gov.au/fwo/IDN60701/IDN60701.94933.axf

JavaScript Object Notation format (JSON) in row-major order
http://www.bom.gov.au/fwo/IDN60701/IDN60701.94933.json

Data quality

Most of these data are generated automatically and are frequently updated. Quality checks on data are not normally performed. It is possible for incorrect values to appear. Refer to information at About Latest Weather Observations and please check the disclaimer before using these data.